Time;durP1;ratioP1;P1;durP2;ratioP2;P2;SDS_P1;SDS_P2;PMS_P1;PMS_P2;Temp;Humidity;BMP_temperature;BMP_pressure;BME280_temperature;BME280_humidity;BME280_pressure;Samples;Min_cycle;Max_cycle;Signal;HPM_P1;HPM_P2
2023/05/25 00:00:44;;;;;;;43.50;26.10;;;;;;;12.56;69.83;99455.52;103350;1279;97989;-78
2023/05/25 00:03:31;;;;;;;40.20;25.10;;;;;;;12.56;69.84;99454.98;103572;1275;110064;-78
2023/05/25 00:06:00;;;;;;;43.90;25.50;;;;;;;12.55;69.82;99452.80;103455;1279;98087;-78
2023/05/25 00:08:29;;;;;;;43.30;26.80;;;;;;;12.54;69.87;99450.55;103461;1280;108120;-78
2023/05/25 00:10:57;;;;;;;42.00;24.00;;;;;;;12.53;69.95;99452.77;103404;1279;97918;-77
2023/05/25 00:13:25;;;;;;;42.50;24.30;;;;;;;12.52;70.07;99458.36;103499;1276;97979;-77
2023/05/25 00:15:53;;;;;;;44.50;25.80;;;;;;;12.52;70.13;99456.38;103381;1279;111319;-77
2023/05/25 00:18:21;;;;;;;42.90;25.50;;;;;;;12.51;70.17;99461.58;103536;1279;98044;-78
2023/05/25 00:20:52;;;;;;;43.40;27.00;;;;;;;12.53;70.11;99462.16;103335;1282;107390;-78
2023/05/25 00:23:20;;;;;;;45.00;27.70;;;;;;;12.57;70.33;99461.36;103471;1280;97998;-77
2023/05/25 00:25:48;;;;;;;46.60;27.50;;;;;;;12.60;70.21;99463.25;103443;1279;98082;-78
2023/05/25 00:28:16;;;;;;;42.60;26.70;;;;;;;12.66;70.33;99466.38;103409;1279;111149;-78
2023/05/25 00:30:44;;;;;;;39.00;24.50;;;;;;;12.71;70.38;99466.02;103436;1277;97966;-78
2023/05/25 00:33:12;;;;;;;41.80;26.70;;;;;;;12.75;70.49;99468.55;103517;1279;108065;-78
2023/05/25 00:35:42;;;;;;;41.50;27.30;;;;;;;12.78;70.42;99465.11;103523;1279;98442;-77
2023/05/25 00:38:15;;;;;;;44.90;26.40;;;;;;;12.82;70.70;99469.10;103528;1277;97957;-77
2023/05/25 00:40:44;;;;;;;46.60;26.70;;;;;;;12.85;70.64;99465.11;103431;1279;111741;-77
2023/05/25 00:43:12;;;;;;;44.90;27.20;;;;;;;12.87;70.60;99464.61;103446;1279;98785;-77
2023/05/25 00:45:40;;;;;;;46.30;26.90;;;;;;;12.89;70.74;99461.64;103529;1279;107547;-77
2023/05/25 00:48:09;;;;;;;47.50;29.10;;;;;;;12.91;70.86;99463.95;103363;1279;99300;-77
2023/05/25 00:50:40;;;;;;;45.30;27.60;;;;;;;12.94;70.85;99462.29;103446;1279;97981;-77
2023/05/25 00:53:10;;;;;;;43.40;28.00;;;;;;;12.95;70.94;99456.85;103443;1277;112539;-77
2023/05/25 00:55:48;;;;;;;43.10;25.80;;;;;;;12.98;71.02;99460.95;103493;1279;97991;-77
2023/05/25 00:58:19;;;;;;;43.10;26.00;;;;;;;13.00;71.15;99466.70;103508;1278;107745;-78
2023/05/25 01:00:50;;;;;;;44.30;26.30;;;;;;;13.02;71.09;99464.39;103444;1279;98075;-77
2023/05/25 01:03:21;;;;;;;43.30;26.30;;;;;;;13.04;71.10;99463.84;103558;1276;97998;-77
2023/05/25 01:05:51;;;;;;;44.80;25.90;;;;;;;13.06;71.19;99464.94;103434;1279;111311;-78
2023/05/25 01:08:21;;;;;;;44.10;27.00;;;;;;;13.06;71.23;99461.55;103344;1281;98161;-77
2023/05/25 01:10:51;;;;;;;39.60;25.30;;;;;;;13.04;71.42;99467.39;103471;1280;107142;-78
2023/05/25 01:13:20;;;;;;;41.00;24.70;;;;;;;13.05;71.16;99470.90;103435;1279;101644;-78
2023/05/25 01:15:50;;;;;;;40.70;25.10;;;;;;;13.08;71.28;99469.56;103457;1279;98900;-77
2023/05/25 01:18:18;;;;;;;40.50;25.10;;;;;;;13.09;71.43;99473.59;103448;1279;110695;-77
2023/05/25 01:21:13;;;;;;;41.40;25.10;;;;;;;13.10;71.32;99476.55;103453;1279;98005;-77
2023/05/25 01:23:49;;;;;;;43.20;26.00;;;;;;;13.12;71.34;99472.35;103516;1279;107747;-78
2023/05/25 01:26:22;;;;;;;46.40;26.90;;;;;;;13.14;71.36;99474.48;103631;1279;97948;-77
2023/05/25 01:28:52;;;;;;;43.10;26.00;;;;;;;13.16;71.34;99474.21;103359;1279;99202;-78
2023/05/25 01:31:22;;;;;;;41.80;24.60;;;;;;;13.17;71.39;99470.55;103598;1276;110999;-78
2023/05/25 01:33:52;;;;;;;41.20;25.00;;;;;;;13.17;71.53;99465.38;103601;1276;97979;-78
2023/05/25 01:36:20;;;;;;;43.40;25.60;;;;;;;13.16;71.32;99462.59;103465;1289;107804;-78
2023/05/25 01:38:48;;;;;;;45.30;25.50;;;;;;;13.17;71.47;99461.30;103450;1279;97997;-77
2023/05/25 01:41:17;;;;;;;39.70;24.50;;;;;;;13.18;71.35;99460.87;103594;1279;97901;-78
2023/05/25 01:43:45;;;;;;;40.10;24.00;;;;;;;13.19;71.36;99458.27;103628;1280;110988;-78
2023/05/25 01:46:26;;;;;;;39.60;23.80;;;;;;;13.19;71.64;99456.30;103397;1280;97981;-77
2023/05/25 01:49:07;;;;;;;38.20;23.80;;;;;;;13.19;71.58;99455.07;103465;1286;108868;-77
2023/05/25 01:51:43;;;;;;;41.80;23.40;;;;;;;13.19;71.48;99450.11;103437;1279;99204;-77
2023/05/25 01:54:29;;;;;;;42.10;25.00;;;;;;;13.20;71.60;99455.35;103517;1280;98088;-78
2023/05/25 01:57:00;;;;;;;45.40;24.60;;;;;;;13.20;71.94;99456.94;103544;1277;110501;-78
2023/05/25 01:59:30;;;;;;;42.10;24.70;;;;;;;13.19;71.65;99464.52;103382;1279;184987;-77
2023/05/25 02:02:00;;;;;;;41.00;24.60;;;;;;;13.17;71.85;99465.15;103543;1277;107756;-78
2023/05/25 02:04:29;;;;;;;46.00;24.80;;;;;;;13.18;71.73;99465.14;103555;1277;97978;-77
2023/05/25 02:06:57;;;;;;;43.00;24.70;;;;;;;13.19;71.77;99466.30;103495;1275;98049;-78
2023/05/25 02:09:24;;;;;;;37.40;23.20;;;;;;;13.18;72.23;99463.34;103391;1280;111374;-78
2023/05/25 02:11:53;;;;;;;42.90;24.50;;;;;;;13.14;71.91;99464.38;103424;1290;99188;-77
2023/05/25 02:14:21;;;;;;;43.20;23.60;;;;;;;13.11;72.00;99464.36;103391;1277;108930;-78
2023/05/25 02:16:49;;;;;;;43.70;25.40;;;;;;;13.08;71.99;99463.15;103417;1280;98356;-78
2023/05/25 02:19:18;;;;;;;42.80;25.20;;;;;;;13.10;71.85;99460.55;103387;1277;97984;-77
2023/05/25 02:21:45;;;;;;;40.80;24.20;;;;;;;13.12;71.89;99457.23;103488;1280;111030;-78
2023/05/25 02:24:13;;;;;;;43.50;24.70;;;;;;;13.12;71.85;99457.89;103474;1279;97989;-78
2023/05/25 02:26:41;;;;;;;45.50;24.50;;;;;;;13.13;71.90;99456.41;103491;1291;107523;-77
2023/05/25 02:29:10;;;;;;;40.00;23.90;;;;;;;13.12;72.04;99460.07;103376;1279;98136;-78
2023/05/25 02:31:38;;;;;;;39.20;23.70;;;;;;;13.11;72.03;99462.92;103493;1280;98007;-77
2023/05/25 02:34:06;;;;;;;41.60;23.80;;;;;;;13.13;71.94;99461.02;103514;1279;110350;-78
2023/05/25 02:36:35;;;;;;;42.10;24.50;;;;;;;13.15;72.02;99464.16;103496;1280;98075;-78
2023/05/25 02:39:03;;;;;;;40.10;24.50;;;;;;;13.19;72.13;99465.09;103448;1280;107407;-77
2023/05/25 02:41:30;;;;;;;44.10;25.20;;;;;;;13.18;72.03;99466.74;103381;1288;97975;-77
2023/05/25 02:43:58;;;;;;;43.20;25.00;;;;;;;13.16;72.04;99469.36;103398;1279;97956;-77
2023/05/25 02:46:27;;;;;;;40.30;25.80;;;;;;;13.16;72.48;99468.88;103387;1277;111368;-77
2023/05/25 02:48:57;;;;;;;42.90;26.20;;;;;;;13.13;72.19;99465.17;103450;1277;99209;-77
2023/05/25 02:51:26;;;;;;;29.40;16.80;;;;;;;13.13;72.10;99470.67;103438;1282;107720;-77
2023/05/25 02:53:54;;;;;;;47.00;28.70;;;;;;;13.13;72.24;99468.89;103434;1279;97988;-77
2023/05/25 02:56:22;;;;;;;46.80;27.10;;;;;;;13.16;72.27;99471.17;103384;1277;97877;-77
2023/05/25 02:58:50;;;;;;;51.70;28.50;;;;;;;13.15;72.21;99470.52;103420;1282;111269;-77
2023/05/25 03:01:18;;;;;;;48.20;29.20;;;;;;;13.14;72.17;99468.48;103396;1281;98021;-78
2023/05/25 03:03:51;;;;;;;47.40;27.20;;;;;;;13.14;72.33;99472.02;103369;1282;108080;-77
2023/05/25 03:06:22;;;;;;;46.40;27.60;;;;;;;13.14;72.23;99474.18;103538;1277;98102;-76
2023/05/25 03:08:49;;;;;;;47.20;28.20;;;;;;;13.13;72.29;99472.96;103435;1293;97960;-78
2023/05/25 03:11:17;;;;;;;46.00;28.30;;;;;;;13.14;72.24;99474.85;103479;1279;111532;-77
2023/05/25 03:13:46;;;;;;;46.00;28.90;;;;;;;13.14;72.24;99475.71;103432;1280;97994;-77
2023/05/25 03:16:14;;;;;;;50.00;29.40;;;;;;;13.14;72.35;99476.85;103418;1280;107795;-77
2023/05/25 03:18:42;;;;;;;50.90;30.10;;;;;;;13.10;72.30;99483.86;103489;1279;98004;-77
2023/05/25 03:21:10;;;;;;;44.00;27.80;;;;;;;13.10;72.35;99483.85;103475;1279;98075;-78
2023/05/25 03:23:38;;;;;;;46.30;27.80;;;;;;;13.13;72.46;99483.27;103392;1279;111996;-78
2023/05/25 03:26:06;;;;;;;46.90;29.10;;;;;;;13.15;72.36;99489.05;103403;1289;98648;-78
2023/05/25 03:28:34;;;;;;;46.60;28.50;;;;;;;13.15;72.15;99487.95;103371;1291;106638;-78
2023/05/25 03:31:03;;;;;;;47.10;28.00;;;;;;;13.16;72.33;99495.73;103405;1279;99365;-78
2023/05/25 03:33:32;;;;;;;47.20;28.20;;;;;;;13.17;72.33;99497.75;103501;1280;98912;-78
2023/05/25 03:36:00;;;;;;;41.40;26.90;;;;;;;13.19;72.46;99504.52;103393;1279;111939;-78
2023/05/25 03:38:28;;;;;;;46.70;29.60;;;;;;;13.19;72.30;99505.50;103460;1291;99212;-77
2023/05/25 03:40:56;;;;;;;46.50;29.10;;;;;;;13.21;72.40;99503.02;103331;1279;106788;-77
2023/05/25 03:43:24;;;;;;;47.10;28.50;;;;;;;13.22;72.36;99506.59;103468;1279;99253;-77
2023/05/25 03:45:52;;;;;;;48.90;30.00;;;;;;;13.23;72.34;99505.67;103451;1277;97979;-77
2023/05/25 03:48:20;;;;;;;47.00;28.60;;;;;;;13.24;72.45;99506.34;103409;1279;109474;-77
2023/05/25 03:50:48;;;;;;;49.30;30.90;;;;;;;13.28;72.47;99501.42;103387;1280;97889;-78
2023/05/25 03:53:16;;;;;;;50.80;29.50;;;;;;;13.31;72.40;99500.64;103464;1282;107297;-77
2023/05/25 03:55:44;;;;;;;49.20;29.10;;;;;;;13.29;72.43;99503.27;103381;1279;99323;-77
2023/05/25 03:58:13;;;;;;;49.30;30.10;;;;;;;13.29;72.47;99500.40;103382;1277;98074;-77
2023/05/25 04:00:41;;;;;;;49.00;29.80;;;;;;;13.32;72.49;99507.70;103430;1276;110993;-78
2023/05/25 04:03:09;;;;;;;54.50;30.00;;;;;;;13.32;72.43;99509.06;103470;1282;97927;-77
2023/05/25 04:05:38;;;;;;;50.10;30.50;;;;;;;13.34;72.40;99510.66;103426;1279;106948;-77
2023/05/25 04:08:07;;;;;;;51.90;31.80;;;;;;;13.34;72.43;99516.83;103540;1279;97992;-77
2023/05/25 04:10:35;;;;;;;48.00;28.20;;;;;;;13.32;72.35;99521.20;103418;1279;98023;-77
2023/05/25 04:13:02;;;;;;;54.10;32.30;;;;;;;13.33;72.42;99527.20;103454;1279;110166;-77
2023/05/25 04:15:33;;;;;;;50.60;30.80;;;;;;;13.33;72.46;99530.59;103445;1280;97988;-78
2023/05/25 04:18:01;;;;;;;56.00;32.40;;;;;;;13.34;72.51;99528.90;103530;1279;106785;-78
2023/05/25 04:20:29;;;;;;;56.30;32.90;;;;;;;13.35;72.36;99531.11;103371;1280;98058;-77
2023/05/25 04:22:57;;;;;;;57.50;33.00;;;;;;;13.36;72.51;99537.10;103449;1279;97906;-77
2023/05/25 04:25:25;;;;;;;56.10;33.90;;;;;;;13.38;72.54;99533.34;103410;1279;111109;-77
2023/05/25 04:28:11;;;;;;;54.90;32.70;;;;;;;13.41;72.52;99534.27;103526;1289;98456;-77
2023/05/25 04:30:40;;;;;;;59.00;34.70;;;;;;;13.41;72.61;99535.85;103414;1283;106565;-77
2023/05/25 04:33:10;;;;;;;61.90;35.40;;;;;;;13.41;72.45;99534.98;103466;1289;98789;-77
2023/05/25 04:35:39;;;;;;;64.10;34.50;;;;;;;13.41;72.43;99538.35;103492;1279;98679;-76
2023/05/25 04:38:07;;;;;;;55.40;33.30;;;;;;;13.41;72.45;99539.79;103384;1280;112017;-77
2023/05/25 04:40:35;;;;;;;62.90;34.60;;;;;;;13.42;72.60;99543.13;103453;1280;98002;-78
2023/05/25 04:43:03;;;;;;;58.70;34.00;;;;;;;13.42;72.43;99538.30;103403;1279;107667;-77
2023/05/25 04:45:32;;;;;;;55.90;33.80;;;;;;;13.43;72.54;99540.94;103503;1283;98010;-78
2023/05/25 04:48:00;;;;;;;59.80;34.90;;;;;;;13.42;72.50;99542.23;103542;1280;97954;-78
2023/05/25 04:50:28;;;;;;;57.60;33.80;;;;;;;13.40;72.47;99544.80;103383;1279;110159;-77
2023/05/25 04:52:56;;;;;;;59.00;34.30;;;;;;;13.39;72.54;99545.56;103426;1282;98080;-78
2023/05/25 04:55:24;;;;;;;67.60;38.00;;;;;;;13.41;72.61;99542.45;103362;1280;107304;-78
2023/05/25 04:57:53;;;;;;;58.10;33.80;;;;;;;13.43;72.64;99543.92;103380;1286;98125;-77
2023/05/25 05:00:21;;;;;;;60.40;35.30;;;;;;;13.44;72.59;99543.49;103553;1277;98072;-78
2023/05/25 05:02:50;;;;;;;61.40;36.00;;;;;;;13.41;72.50;99543.55;103479;1279;110663;-78
2023/05/25 05:05:18;;;;;;;65.10;36.30;;;;;;;13.38;72.62;99539.63;103454;1277;97893;-78
2023/05/25 05:07:46;;;;;;;64.70;37.00;;;;;;;13.42;72.70;99538.80;103441;1279;107246;-78
2023/05/25 05:10:14;;;;;;;61.90;35.30;;;;;;;13.49;72.68;99536.67;104675;1276;97926;-78
2023/05/25 05:12:42;;;;;;;64.50;38.40;;;;;;;13.53;72.62;99535.48;103647;1277;99343;-77
2023/05/25 05:15:10;;;;;;;64.90;36.00;;;;;;;13.56;72.72;99538.80;103323;1277;111452;-78
2023/05/25 05:17:38;;;;;;;60.50;36.10;;;;;;;13.59;72.69;99540.05;103381;1276;98128;-77
2023/05/25 05:20:07;;;;;;;63.70;37.70;;;;;;;13.61;72.73;99545.39;103504;1291;107048;-79
2023/05/25 05:22:36;;;;;;;61.50;36.30;;;;;;;13.63;72.83;99545.81;103523;1279;98007;-77
2023/05/25 05:25:06;;;;;;;63.10;38.30;;;;;;;13.62;72.73;99548.02;103456;1279;98548;-79
2023/05/25 05:27:34;;;;;;;59.40;35.00;;;;;;;13.58;72.62;99550.81;103578;1277;111082;-77
2023/05/25 05:30:03;;;;;;;65.70;35.90;;;;;;;13.54;72.69;99553.41;103551;1280;97924;-77
2023/05/25 05:32:31;;;;;;;69.50;37.70;;;;;;;13.52;72.80;99552.61;103443;1290;107396;-78
2023/05/25 05:34:59;;;;;;;61.60;36.70;;;;;;;13.50;72.73;99558.67;103475;1277;98049;-77
2023/05/25 05:37:27;;;;;;;65.90;37.90;;;;;;;13.47;72.85;99558.04;103491;1290;98059;-77
2023/05/25 05:39:55;;;;;;;67.80;37.30;;;;;;;13.42;72.78;99559.52;103439;1280;110177;-77
2023/05/25 05:42:23;;;;;;;59.80;35.20;;;;;;;13.42;72.75;99559.14;103641;1289;97997;-77
2023/05/25 05:44:51;;;;;;;61.40;36.70;;;;;;;13.44;72.82;99563.42;103422;1286;107703;-77
2023/05/25 05:47:20;;;;;;;66.00;36.00;;;;;;;13.46;72.82;99565.79;103439;1288;97993;-77
2023/05/25 05:49:48;;;;;;;61.60;36.30;;;;;;;13.50;72.87;99565.30;103429;1290;97980;-77
2023/05/25 05:52:16;;;;;;;63.50;37.10;;;;;;;13.51;72.75;99562.19;103551;1279;112488;-78
2023/05/25 05:54:44;;;;;;;70.80;39.60;;;;;;;13.50;72.92;99565.63;103465;1276;98792;-77
2023/05/25 05:57:12;;;;;;;71.90;37.80;;;;;;;13.52;72.90;99572.75;103891;1286;107967;-77
2023/05/25 05:59:40;;;;;;;64.20;37.70;;;;;;;13.57;72.86;99575.08;103468;1280;97963;-77
2023/05/25 06:02:08;;;;;;;70.50;38.00;;;;;;;13.56;72.86;99577.63;103609;1288;97954;-77
2023/05/25 06:04:37;;;;;;;67.80;38.20;;;;;;;13.56;72.80;99578.72;103638;1279;111410;-77
2023/05/25 06:07:05;;;;;;;66.50;36.90;;;;;;;13.55;72.78;99582.00;105160;1276;97980;-78
2023/05/25 06:09:34;;;;;;;69.80;39.50;;;;;;;13.55;73.01;99584.89;104427;1279;108447;-77
2023/05/25 06:12:02;;;;;;;63.90;37.60;;;;;;;13.55;72.91;99587.36;103653;1279;97976;-78
2023/05/25 06:14:30;;;;;;;67.90;39.10;;;;;;;13.55;72.85;99586.83;103818;1279;98061;-77
2023/05/25 06:16:58;;;;;;;71.80;38.60;;;;;;;13.64;72.94;99595.27;103534;1279;112043;-78
2023/05/25 06:19:26;;;;;;;69.70;37.30;;;;;;;13.68;72.98;99597.26;104357;1276;99216;-78
2023/05/25 06:21:54;;;;;;;61.70;35.80;;;;;;;13.69;72.95;99603.06;104238;1276;107121;-78
2023/05/25 06:24:23;;;;;;;64.80;37.00;;;;;;;13.68;72.92;99602.73;105903;1276;98117;-78
2023/05/25 06:26:51;;;;;;;66.80;38.60;;;;;;;13.72;73.08;99606.04;104947;1280;97883;-77
2023/05/25 06:29:18;;;;;;;67.20;39.40;;;;;;;13.79;73.03;99607.80;105312;1274;111594;-78
2023/05/25 06:31:46;;;;;;;73.60;39.90;;;;;;;13.86;73.01;99609.59;105965;1276;96530;-78
2023/05/25 06:34:15;;;;;;;74.50;40.10;;;;;;;13.89;72.91;99610.27;106679;1274;108082;-78
2023/05/25 06:36:43;;;;;;;73.00;40.10;;;;;;;13.94;73.12;99609.30;103449;1277;98062;-77
2023/05/25 06:39:11;;;;;;;63.50;36.10;;;;;;;14.02;73.01;99608.73;103417;1289;97987;-78
2023/05/25 06:41:39;;;;;;;68.80;40.30;;;;;;;14.07;73.04;99609.73;103356;1277;110993;-78
2023/05/25 06:44:07;;;;;;;71.50;40.60;;;;;;;14.13;73.01;99609.48;103379;1281;97973;-82
2023/05/25 06:46:36;;;;;;;65.40;38.00;;;;;;;14.15;72.98;99610.05;103645;1289;107361;-80
2023/05/25 06:49:04;;;;;;;68.70;38.60;;;;;;;14.17;73.01;99611.67;103655;1277;98062;-80
2023/05/25 06:51:33;;;;;;;66.70;39.40;;;;;;;14.14;72.94;99612.94;103665;1282;98010;-81
2023/05/25 06:54:01;;;;;;;75.90;42.50;;;;;;;14.11;73.01;99617.48;103597;1279;109627;-79
2023/05/25 06:56:28;;;;;;;71.00;42.10;;;;;;;14.08;72.92;99614.85;103440;1291;97971;-80
2023/05/25 06:58:56;;;;;;;69.70;41.90;;;;;;;14.10;73.03;99616.13;103463;1279;108115;-79
2023/05/25 07:01:27;;;;;;;65.60;40.90;;;;;;;14.16;73.02;99617.61;103423;1279;97966;-79
2023/05/25 07:03:55;;;;;;;67.60;41.60;;;;;;;14.18;72.99;99621.03;103522;1287;97899;-79
2023/05/25 07:06:23;;;;;;;63.60;37.90;;;;;;;14.17;73.00;99624.27;103437;1280;110834;-79
2023/05/25 07:08:51;;;;;;;68.70;41.00;;;;;;;14.17;73.07;99627.14;103376;1280;98314;-78
2023/05/25 07:11:20;;;;;;;66.90;39.60;;;;;;;14.17;72.95;99628.63;103527;1292;106572;-79
2023/05/25 07:13:48;;;;;;;66.90;38.60;;;;;;;14.23;73.04;99628.88;103519;1295;99402;-79
2023/05/25 07:16:17;;;;;;;72.00;41.00;;;;;;;14.31;72.97;99626.79;103454;1279;97982;-79
2023/05/25 07:18:45;;;;;;;70.10;41.20;;;;;;;14.33;72.97;99620.85;103396;1286;110428;-79
2023/05/25 07:21:13;;;;;;;69.80;40.90;;;;;;;14.39;72.98;99622.89;103708;1280;98071;-79
2023/05/25 07:23:41;;;;;;;64.50;38.50;;;;;;;14.46;72.95;99621.35;103335;1287;107327;-78
2023/05/25 07:26:09;;;;;;;66.50;40.30;;;;;;;14.49;72.99;99621.46;104361;1277;97976;-79
2023/05/25 07:28:36;;;;;;;68.00;38.50;;;;;;;14.52;73.00;99624.03;104867;1276;98024;-80
2023/05/25 07:31:05;;;;;;;64.40;38.60;;;;;;;14.56;72.97;99629.97;105070;1276;110424;-81
2023/05/25 07:33:33;;;;;;;59.70;35.80;;;;;;;14.58;72.91;99631.05;104186;1276;98005;-79
2023/05/25 07:36:01;;;;;;;64.30;39.30;;;;;;;14.68;73.02;99628.98;104088;1279;107980;-78
2023/05/25 07:38:29;;;;;;;64.20;38.90;;;;;;;14.75;72.91;99630.98;103623;1279;98090;-78
2023/05/25 07:40:56;;;;;;;62.10;37.00;;;;;;;14.72;72.82;99625.50;103428;1279;97984;-78
2023/05/25 07:43:24;;;;;;;64.30;38.20;;;;;;;14.77;72.77;99630.68;103411;1277;110763;-79
2023/05/25 07:45:53;;;;;;;59.80;36.90;;;;;;;14.82;72.95;99629.52;103372;1291;98086;-79
2023/05/25 07:48:21;;;;;;;61.10;36.20;;;;;;;14.92;72.89;99631.95;103461;1286;107496;-78
2023/05/25 07:50:49;;;;;;;59.90;36.50;;;;;;;14.99;72.98;99630.11;103438;1280;97908;-77
2023/05/25 07:53:17;;;;;;;61.00;37.70;;;;;;;15.12;72.93;99631.58;103725;1280;97962;-78
2023/05/25 07:55:45;;;;;;;58.90;36.70;;;;;;;15.18;72.79;99626.41;103545;1280;110761;-77
2023/05/25 07:58:13;;;;;;;62.40;36.90;;;;;;;15.20;72.67;99626.23;106609;1279;97765;-78
2023/05/25 08:00:42;;;;;;;63.60;38.10;;;;;;;15.23;72.78;99625.50;104822;1279;107102;-78
2023/05/25 08:03:11;;;;;;;64.50;36.50;;;;;;;15.36;72.83;99629.41;105618;1276;97861;-79
2023/05/25 08:05:39;;;;;;;63.80;35.90;;;;;;;15.28;72.36;99632.05;106432;1275;95698;-78
2023/05/25 08:08:08;;;;;;;62.00;36.30;;;;;;;15.26;72.69;99630.55;103463;1279;111557;-80
2023/05/25 08:10:36;;;;;;;62.90;37.90;;;;;;;15.37;72.71;99629.84;103438;1280;98011;-78
2023/05/25 08:13:04;;;;;;;61.80;37.00;;;;;;;15.45;72.75;99627.41;103479;1288;107879;-78
2023/05/25 08:15:32;;;;;;;66.40;38.30;;;;;;;15.57;72.72;99628.38;103472;1283;97963;-78
2023/05/25 08:18:03;;;;;;;57.80;34.20;;;;;;;15.58;72.49;99628.98;103373;1279;99234;-78
2023/05/25 08:20:31;;;;;;;62.30;36.90;;;;;;;15.55;72.34;99633.48;103428;1279;111268;-78
2023/05/25 08:23:00;;;;;;;64.00;38.00;;;;;;;15.48;72.24;99633.58;103430;1280;97957;-78
2023/05/25 08:25:28;;;;;;;63.20;37.20;;;;;;;15.54;72.77;99630.58;103370;1277;107005;-78
2023/05/25 08:27:56;;;;;;;62.90;38.70;;;;;;;15.59;72.42;99631.39;103430;1276;97998;-78
2023/05/25 08:30:25;;;;;;;65.50;37.40;;;;;;;15.68;72.77;99635.65;103423;1290;98919;-78
2023/05/25 08:32:53;;;;;;;60.00;36.90;;;;;;;15.77;72.49;99639.02;103466;1289;110871;-78
2023/05/25 08:35:21;;;;;;;65.30;37.40;;;;;;;15.74;72.48;99638.89;103346;1283;97904;-78
2023/05/25 08:37:49;;;;;;;66.30;37.80;;;;;;;15.78;72.56;99642.45;103412;1282;106968;-78
2023/05/25 08:40:20;;;;;;;64.30;38.60;;;;;;;15.75;72.31;99642.95;103411;1283;98084;-78
2023/05/25 08:42:48;;;;;;;67.30;38.90;;;;;;;15.72;72.34;99645.87;103492;1283;97957;-79
2023/05/25 08:45:16;;;;;;;67.40;39.60;;;;;;;15.79;72.58;99649.75;103459;1276;111569;-78
2023/05/25 08:48:08;;;;;;;68.40;39.90;;;;;;;15.84;72.36;99653.41;103416;1281;97888;-77
2023/05/25 08:50:37;;;;;;;64.90;37.00;;;;;;;15.79;72.30;99651.31;103523;1279;108609;-78
2023/05/25 08:53:10;;;;;;;63.00;38.30;;;;;;;15.83;72.45;99651.73;103384;1290;98103;-78
2023/05/25 08:55:42;;;;;;;70.80;41.40;;;;;;;15.88;72.41;99652.06;103385;1280;98756;-78
2023/05/25 08:58:16;;;;;;;69.20;39.40;;;;;;;15.97;72.61;99652.21;103412;1277;111735;-78
2023/05/25 09:00:54;;;;;;;71.60;41.10;;;;;;;16.10;72.62;99651.63;103379;1290;97982;-78
2023/05/25 09:03:22;;;;;;;71.10;39.40;;;;;;;16.13;72.08;99653.86;103410;1276;107032;-77
2023/05/25 09:05:51;;;;;;;70.80;40.60;;;;;;;16.09;72.24;99651.90;103395;1284;99220;-78
2023/05/25 09:08:21;;;;;;;71.20;41.10;;;;;;;16.16;72.44;99652.33;103435;1289;99462;-78
2023/05/25 09:10:50;;;;;;;67.80;37.70;;;;;;;16.22;72.28;99644.98;103383;1289;110480;-79
2023/05/25 09:13:18;;;;;;;68.00;38.60;;;;;;;16.30;72.15;99642.36;103416;1287;97991;-78
2023/05/25 09:15:51;;;;;;;72.50;41.50;;;;;;;16.39;72.25;99643.73;103497;1280;107700;-78
2023/05/25 09:18:20;;;;;;;63.10;38.90;;;;;;;16.39;71.97;99641.80;103388;1280;98076;-78
2023/05/25 09:20:48;;;;;;;63.40;37.20;;;;;;;16.44;72.18;99645.83;103462;1280;99320;-79
2023/05/25 09:23:17;;;;;;;65.50;39.60;;;;;;;16.52;72.27;99645.83;103432;1291;109989;-78
2023/05/25 09:25:49;;;;;;;64.90;37.10;;;;;;;16.60;72.17;99647.30;103421;1276;99311;-78
2023/05/25 09:28:20;;;;;;;66.80;37.30;;;;;;;16.62;72.04;99653.19;103464;1287;106626;-78
2023/05/25 09:30:51;;;;;;;64.50;37.00;;;;;;;16.59;71.84;99651.67;103565;1283;98091;-78
2023/05/25 09:33:20;;;;;;;66.50;38.50;;;;;;;16.55;71.95;99654.31;103397;1292;98077;-78
2023/05/25 09:35:48;;;;;;;64.40;37.00;;;;;;;16.59;72.16;99658.08;103539;1280;111001;-78
2023/05/25 09:38:16;;;;;;;65.50;36.20;;;;;;;16.65;72.00;99658.08;103399;1277;98006;-78
2023/05/25 09:40:44;;;;;;;60.50;37.20;;;;;;;16.72;72.02;99658.73;103407;1286;107998;-78
2023/05/25 09:43:12;;;;;;;60.50;35.50;;;;;;;16.82;72.14;99660.00;103439;1288;98016;-77
2023/05/25 09:45:55;;;;;;;61.30;34.80;;;;;;;16.93;72.10;99656.50;103361;1279;98096;-78
2023/05/25 09:48:25;;;;;;;61.10;33.80;;;;;;;17.07;72.17;99655.67;103382;1279;111201;-78
2023/05/25 09:50:52;;;;;;;57.30;33.00;;;;;;;17.23;72.05;99661.19;103462;1279;98665;-77
2023/05/25 09:53:20;;;;;;;57.80;32.90;;;;;;;17.38;71.59;99665.04;103407;1288;106484;-78
2023/05/25 09:55:49;;;;;;;57.30;32.20;;;;;;;17.39;71.65;99660.67;103413;1277;99347;-78
2023/05/25 09:58:23;;;;;;;51.90;29.60;;;;;;;17.52;71.70;99659.42;103518;1280;98153;-78
2023/05/25 10:00:54;;;;;;;52.90;31.10;;;;;;;17.55;70.97;99658.10;103479;1276;110814;-78
2023/05/25 10:03:22;;;;;;;54.60;30.90;;;;;;;17.60;71.33;99653.56;103513;1280;97991;-78
2023/05/25 10:05:52;;;;;;;48.20;28.60;;;;;;;17.73;70.98;99651.15;103512;1280;106550;-78
2023/05/25 10:08:20;;;;;;;47.70;27.90;;;;;;;17.74;70.82;99652.81;103458;1289;99175;-78
2023/05/25 10:10:50;;;;;;;48.50;26.80;;;;;;;17.75;70.90;99648.15;103523;1279;99306;-79
2023/05/25 10:13:21;;;;;;;44.30;27.40;;;;;;;17.81;71.13;99645.84;103448;1279;110538;-78
2023/05/25 10:15:53;;;;;;;41.70;25.40;;;;;;;17.90;71.06;99649.90;103465;1280;98007;-78
2023/05/25 10:18:26;;;;;;;40.80;25.60;;;;;;;17.81;70.58;99652.89;103513;1277;106947;-78
2023/05/25 10:21:02;;;;;;;;;;;;;;;17.84;70.70;99654.52;103404;1283;98147;-78
2023/05/25 10:23:40;;;;;;;36.20;23.30;;;;;;;17.87;71.06;99653.39;103519;1283;97969;-78
2023/05/25 10:26:13;;;;;;;41.20;24.90;;;;;;;17.93;70.96;99653.89;103488;1283;111799;-79
2023/05/25 10:28:44;;;;;;;37.80;23.70;;;;;;;17.83;70.77;99650.17;103312;1276;97899;-78
2023/05/25 10:31:15;;;;;;;42.30;24.90;;;;;;;17.89;71.06;99645.15;103550;1279;106898;-78
2023/05/25 10:33:45;;;;;;;41.60;24.70;;;;;;;17.92;71.05;99644.61;103413;1276;99225;-78
2023/05/25 10:36:20;;;;;;;44.10;24.50;;;;;;;17.99;70.94;99646.89;103440;1277;99319;-79
2023/05/25 10:38:50;;;;;;;37.50;22.90;;;;;;;18.02;70.57;99649.17;103324;1280;111537;-78
2023/05/25 10:41:20;;;;;;;39.40;23.00;;;;;;;17.89;70.24;99646.00;103447;1277;98001;-78
2023/05/25 10:43:50;;;;;;;35.00;21.70;;;;;;;17.68;69.83;99647.18;103493;1276;108380;-78
2023/05/25 10:46:18;;;;;;;39.60;22.30;;;;;;;17.61;70.35;99645.89;103388;1280;98000;-77
2023/05/25 10:48:48;;;;;;;36.90;21.10;;;;;;;17.68;70.53;99642.98;103539;1279;97984;-77
2023/05/25 10:51:19;;;;;;;35.40;21.60;;;;;;;17.74;70.43;99636.70;103399;1289;111344;-77
2023/05/25 10:54:00;;;;;;;44.30;22.70;;;;;;;17.79;70.69;99636.17;103511;1288;97921;-78
2023/05/25 10:56:28;;;;;;;39.50;21.30;;;;;;;17.77;70.37;99633.25;103448;1283;109112;-78
2023/05/25 10:58:57;;;;;;;39.60;21.40;;;;;;;17.77;70.48;99631.14;103432;1283;98103;-78
2023/05/25 11:01:25;;;;;;;31.10;18.90;;;;;;;17.86;70.53;99631.05;104258;1276;99314;-78
2023/05/25 11:04:09;;;;;;;32.60;20.10;;;;;;;17.97;70.21;99632.59;104446;1276;110127;-79
2023/05/25 11:06:44;;;;;;;32.60;18.80;;;;;;;18.12;70.34;99634.00;104378;1277;97882;-77
2023/05/25 11:09:24;;;;;;;34.30;21.30;;;;;;;18.21;69.87;99635.48;106064;1276;108180;-78
2023/05/25 11:11:54;;;;;;;35.50;21.90;;;;;;;18.17;69.25;99635.45;103756;1279;98116;-77
2023/05/25 11:14:28;;;;;;;35.20;20.40;;;;;;;18.15;69.75;99636.60;104093;1276;97998;-77
2023/05/25 11:17:05;;;;;;;35.80;20.80;;;;;;;18.24;69.83;99637.94;103669;1278;111744;-77